createdAt,value
2022-09-10T00:00:25.504Z,99.99
2022-09-10T00:01:25.560Z,99.99
2022-09-10T00:02:25.551Z,99.99
2022-09-10T00:03:25.477Z,99.99
2022-09-10T00:04:25.461Z,99.99
2022-09-10T00:05:25.445Z,99.99
2022-09-10T00:06:25.427Z,99.99
2022-09-10T00:07:25.422Z,99.99
2022-09-10T00:08:25.406Z,99.99
2022-09-10T00:09:25.400Z,99.99
2022-09-10T00:10:25.473Z,99.99
2022-09-10T00:11:25.397Z,99.99
2022-09-10T00:12:25.368Z,99.99
2022-09-10T00:13:25.363Z,99.99
2022-09-10T00:14:25.371Z,99.99
2022-09-10T00:15:25.338Z,99.99
2022-09-10T00:16:25.400Z,99.99
2022-09-10T00:17:25.309Z,99.99
2022-09-10T00:18:25.292Z,99.99
2022-09-10T00:19:25.326Z,99.99
2022-09-10T00:20:25.302Z,99.99
2022-09-10T00:21:25.277Z,99.99
2022-09-10T00:22:25.296Z,99.99
2022-09-10T00:23:25.247Z,99.99
2022-09-10T00:24:25.268Z,99.99
2022-09-10T00:25:25.214Z,99.99
2022-09-10T00:26:25.212Z,99.99
2022-09-10T00:27:25.199Z,99.99
2022-09-10T00:28:25.196Z,99.99
2022-09-10T00:29:25.175Z,99.99
2022-09-10T00:30:25.170Z,99.99
2022-09-10T00:31:25.221Z,99.99
2022-09-10T00:32:25.147Z,99.99
2022-09-10T00:33:25.154Z,99.99
2022-09-10T00:34:25.123Z,99.99
2022-09-10T00:35:25.106Z,99.99
2022-09-10T00:36:25.106Z,99.99
2022-09-10T00:37:25.092Z,99.99
2022-09-10T00:38:25.067Z,99.99
2022-09-10T00:39:25.072Z,99.99
2022-09-10T00:40:25.046Z,99.99
2022-09-10T00:41:25.043Z,99.99
2022-09-10T00:42:25.025Z,99.99
2022-09-10T00:43:25.019Z,99.99
2022-09-10T00:44:25.039Z,99.99
2022-09-10T00:45:25.064Z,99.99
2022-09-10T00:46:24.997Z,99.99
2022-09-10T00:47:25.001Z,99.99
2022-09-10T00:48:24.964Z,99.99
2022-09-10T00:49:24.971Z,99.99
2022-09-10T00:50:24.937Z,99.99
2022-09-10T00:51:24.976Z,99.99
2022-09-10T00:52:24.930Z,99.99
2022-09-10T00:53:24.902Z,99.99
2022-09-10T00:54:24.903Z,99.99
2022-09-10T00:55:24.910Z,99.99
2022-09-10T00:56:24.882Z,99.99
2022-09-10T00:57:24.864Z,99.99
2022-09-10T00:58:24.849Z,99.99
2022-09-10T00:59:24.835Z,99.99
2022-09-10T01:00:24.834Z,99.99
2022-09-10T01:01:24.856Z,99.99
2022-09-10T01:02:24.811Z,99.99
2022-09-10T01:03:25.687Z,99.99
2022-09-10T01:04:24.810Z,99.99
2022-09-10T01:05:24.825Z,99.99
2022-09-10T01:06:24.770Z,99.99
2022-09-10T01:07:24.748Z,99.99
2022-09-10T01:08:24.756Z,99.99
2022-09-10T01:09:24.726Z,99.99
2022-09-10T01:10:24.709Z,99.99
2022-09-10T01:11:24.720Z,99.99
2022-09-10T01:12:24.710Z,99.99
2022-09-10T01:13:24.692Z,99.99
2022-09-10T01:14:24.682Z,99.99
2022-09-10T01:15:24.840Z,99.99
2022-09-10T01:16:24.724Z,99.99
2022-09-10T01:17:24.642Z,99.99
2022-09-10T01:18:24.621Z,99.99
2022-09-10T01:19:24.626Z,99.99
2022-09-10T01:20:24.613Z,99.99
2022-09-10T01:21:24.620Z,99.99
2022-09-10T01:22:24.584Z,99.99
2022-09-10T01:23:24.591Z,99.99
2022-09-10T01:24:24.570Z,99.99
2022-09-10T01:25:24.597Z,99.99
2022-09-10T01:26:24.531Z,99.99
2022-09-10T01:27:24.522Z,99.99
2022-09-10T01:28:24.529Z,99.99
2022-09-10T01:29:24.531Z,99.99
2022-09-10T01:30:24.489Z,99.99
2022-09-10T01:31:24.551Z,99.99
2022-09-10T01:32:24.495Z,99.99
2022-09-10T01:33:24.497Z,99.99
2022-09-10T01:34:24.452Z,99.99
2022-09-10T01:35:24.438Z,99.99
2022-09-10T01:36:24.431Z,99.99
2022-09-10T01:37:24.416Z,99.99
2022-09-10T01:38:24.695Z,99.99
2022-09-10T01:39:24.401Z,99.99
2022-09-10T01:40:24.412Z,99.99
2022-09-10T01:41:24.409Z,99.99
2022-09-10T01:42:24.356Z,99.99
2022-09-10T01:43:24.362Z,99.99
2022-09-10T01:44:24.376Z,99.99
2022-09-10T01:45:24.428Z,99.99
2022-09-10T01:46:24.331Z,99.99
2022-09-10T01:47:24.301Z,99.99
2022-09-10T01:48:24.309Z,99.99
2022-09-10T01:49:24.307Z,99.99
2022-09-10T01:50:24.270Z,99.99
2022-09-10T01:51:24.273Z,99.99
2022-09-10T01:52:24.275Z,99.99
2022-09-10T01:53:24.252Z,99.99
2022-09-10T01:54:24.231Z,99.99
2022-09-10T01:55:24.237Z,99.99
2022-09-10T01:56:24.254Z,99.99
2022-09-10T01:57:24.213Z,99.99
2022-09-10T01:58:24.178Z,99.99
2022-09-10T01:59:24.186Z,99.99
2022-09-10T02:00:24.171Z,99.99
2022-09-10T02:01:24.287Z,99.99
2022-09-10T02:02:24.176Z,99.99
2022-09-10T02:03:24.143Z,99.99
2022-09-10T02:04:24.110Z,99.99
2022-09-10T02:05:24.115Z,99.99
2022-09-10T02:06:24.119Z,99.99
2022-09-10T02:07:24.103Z,99.99
2022-09-10T02:08:24.083Z,99.99
2022-09-10T02:09:24.058Z,99.99
2022-09-10T02:10:24.054Z,99.99
2022-09-10T02:11:24.043Z,99.99
2022-09-10T02:12:24.071Z,99.99
2022-09-10T02:13:24.017Z,99.99
2022-09-10T02:14:24.012Z,99.99
2022-09-10T02:15:24.017Z,99.99
2022-09-10T02:16:24.037Z,99.99
2022-09-10T02:17:23.994Z,99.99
2022-09-10T02:18:23.989Z,99.99
2022-09-10T02:19:23.955Z,99.99
2022-09-10T02:20:23.952Z,99.99
2022-09-10T02:21:23.963Z,99.99
2022-09-10T02:22:23.914Z,99.99
2022-09-10T02:23:23.920Z,99.99
2022-09-10T02:24:23.887Z,99.99
2022-09-10T02:25:23.894Z,99.99
2022-09-10T02:26:23.868Z,99.99
2022-09-10T02:27:23.862Z,99.99
2022-09-10T02:28:23.880Z,99.99
2022-09-10T02:29:23.854Z,99.99
2022-09-10T02:30:23.827Z,99.99
2022-09-10T02:31:24.012Z,99.99
2022-09-10T02:32:23.798Z,99.99
2022-09-10T02:33:23.794Z,99.99
2022-09-10T02:34:23.807Z,99.99
2022-09-10T02:35:23.796Z,99.99
2022-09-10T02:36:23.766Z,99.99
2022-09-10T02:37:23.765Z,99.99
2022-09-10T02:38:23.767Z,99.99
2022-09-10T02:39:23.739Z,99.99
2022-09-10T02:40:23.728Z,99.99
2022-09-10T02:41:23.699Z,99.99
2022-09-10T02:42:23.694Z,99.99
2022-09-10T02:43:23.711Z,99.99
2022-09-10T02:44:23.683Z,99.99
2022-09-10T02:45:23.755Z,99.99
2022-09-10T02:46:23.667Z,99.99
2022-09-10T02:47:23.673Z,99.99
2022-09-10T02:48:23.633Z,99.99
2022-09-10T02:49:23.650Z,99.99
2022-09-10T02:50:23.607Z,99.99
2022-09-10T02:51:23.614Z,99.99
2022-09-10T02:52:23.625Z,99.99
2022-09-10T02:53:23.582Z,99.99
2022-09-10T02:54:23.576Z,99.99
2022-09-10T02:55:23.545Z,99.99
2022-09-10T02:56:23.548Z,99.99
2022-09-10T02:57:23.596Z,99.99
2022-09-10T02:58:23.566Z,99.99
2022-09-10T02:59:23.517Z,99.99
2022-09-10T03:00:23.541Z,99.99
2022-09-10T03:01:23.536Z,99.99
2022-09-10T03:02:23.556Z,99.99
2022-09-10T03:03:23.476Z,99.99
2022-09-10T03:04:23.447Z,99.99
2022-09-10T03:05:23.587Z,99.99
2022-09-10T03:06:23.429Z,99.99
2022-09-10T03:07:23.416Z,99.99
2022-09-10T03:08:23.428Z,99.99
2022-09-10T03:09:23.415Z,99.99
2022-09-10T03:10:23.386Z,99.99
2022-09-10T03:11:23.384Z,99.99
2022-09-10T03:12:23.363Z,99.99
2022-09-10T03:13:23.351Z,99.99
2022-09-10T03:14:23.366Z,99.99
2022-09-10T03:15:23.323Z,99.99
2022-09-10T03:16:23.385Z,99.99
2022-09-10T03:17:23.317Z,99.99
2022-09-10T03:18:23.294Z,99.99
2022-09-10T03:19:23.304Z,99.99
2022-09-10T03:20:23.292Z,99.99
2022-09-10T03:21:23.257Z,99.99
2022-09-10T03:22:23.251Z,99.99
2022-09-10T03:23:23.236Z,99.99
2022-09-10T03:24:23.226Z,99.99
2022-09-10T03:25:23.232Z,99.99
2022-09-10T03:26:23.233Z,99.99
2022-09-10T03:27:23.197Z,99.99
2022-09-10T03:28:23.193Z,99.99
2022-09-10T03:29:23.168Z,99.99
2022-09-10T03:30:23.174Z,99.99
2022-09-10T03:31:23.197Z,99.99
2022-09-10T03:32:23.187Z,99.99
2022-09-10T03:33:23.138Z,99.99
2022-09-10T03:34:23.133Z,99.99
2022-09-10T03:35:23.100Z,99.99
2022-09-10T03:36:23.098Z,99.99
2022-09-10T03:37:23.108Z,99.99
2022-09-10T03:38:23.074Z,99.99
2022-09-10T03:39:23.074Z,99.99
2022-09-10T03:40:23.046Z,99.99
2022-09-10T03:41:23.081Z,99.99
2022-09-10T03:42:23.035Z,99.99
2022-09-10T03:43:23.030Z,99.99
2022-09-10T03:44:23.014Z,99.99
2022-09-10T03:45:23.049Z,99.99
2022-09-10T03:46:23.007Z,99.99
2022-09-10T03:47:22.966Z,99.99
2022-09-10T03:48:22.992Z,99.99
2022-09-10T03:49:22.983Z,99.99
2022-09-10T03:50:22.951Z,99.99
2022-09-10T03:51:22.963Z,99.99
2022-09-10T03:52:22.913Z,99.99
2022-09-10T03:53:22.929Z,99.99
2022-09-10T03:54:22.927Z,99.99
2022-09-10T03:55:22.878Z,99.99
2022-09-10T03:56:22.872Z,99.99
2022-09-10T03:57:22.898Z,99.99
2022-09-10T03:58:22.849Z,99.99
2022-09-10T03:59:22.843Z,99.99
2022-09-10T04:00:22.902Z,99.99
2022-09-10T04:01:22.855Z,99.99
2022-09-10T04:02:22.908Z,99.99
2022-09-10T04:03:22.791Z,99.99
2022-09-10T04:04:22.811Z,99.99
2022-09-10T04:05:22.775Z,99.99
2022-09-10T04:06:22.756Z,99.99
2022-09-10T04:07:22.756Z,99.99
2022-09-10T04:08:22.753Z,99.99
2022-09-10T04:09:22.759Z,99.99
2022-09-10T04:10:22.721Z,99.99
2022-09-10T04:11:22.709Z,99.99
2022-09-10T04:12:22.689Z,99.99
2022-09-10T04:13:22.683Z,99.99
2022-09-10T04:14:22.695Z,99.99
2022-09-10T04:15:22.655Z,99.99
2022-09-10T04:16:22.683Z,99.99
2022-09-10T04:17:22.654Z,99.99
2022-09-10T04:18:22.647Z,99.99
2022-09-10T04:19:22.634Z,99.99
2022-09-10T04:20:22.635Z,99.99
2022-09-10T04:21:22.588Z,99.99
2022-09-10T04:22:22.593Z,99.99
2022-09-10T04:23:22.571Z,99.99
2022-09-10T04:24:22.566Z,99.99
2022-09-10T04:25:22.575Z,99.99
2022-09-10T04:26:22.536Z,99.99
2022-09-10T04:27:22.539Z,99.99
2022-09-10T04:28:22.585Z,99.99
2022-09-10T04:29:22.504Z,99.99
2022-09-10T04:30:22.504Z,99.99
2022-09-10T04:31:22.576Z,99.99
2022-09-10T04:32:22.467Z,99.99
2022-09-10T04:33:22.479Z,99.99
2022-09-10T04:34:22.473Z,99.99
2022-09-10T04:35:22.465Z,99.99
2022-09-10T04:36:22.462Z,99.99
2022-09-10T04:37:22.432Z,99.99
2022-09-10T04:38:22.416Z,99.99
2022-09-10T04:39:22.436Z,99.99
2022-09-10T04:40:22.415Z,99.99
2022-09-10T04:41:22.385Z,99.99
2022-09-10T04:42:22.370Z,99.99
2022-09-10T04:43:22.345Z,99.99
2022-09-10T04:44:22.335Z,99.99
2022-09-10T04:45:22.353Z,99.99
2022-09-10T04:46:22.310Z,99.99
2022-09-10T04:47:22.320Z,99.99
2022-09-10T04:48:22.295Z,99.99
2022-09-10T04:49:22.280Z,99.99
2022-09-10T04:50:22.276Z,99.99
2022-09-10T04:51:22.277Z,99.99
2022-09-10T04:52:22.315Z,99.99
2022-09-10T04:53:22.244Z,99.99
2022-09-10T04:54:22.228Z,99.99
2022-09-10T04:55:22.211Z,99.99
2022-09-10T04:56:22.213Z,99.99
2022-09-10T04:57:22.211Z,99.99
2022-09-10T04:58:22.187Z,99.99
2022-09-10T04:59:22.182Z,99.99
2022-09-10T05:00:22.155Z,99.99
2022-09-10T05:01:22.269Z,99.99
2022-09-10T05:02:22.224Z,99.99
2022-09-10T05:03:22.161Z,99.99
2022-09-10T05:04:22.126Z,99.99
2022-09-10T05:05:22.099Z,99.99
2022-09-10T05:06:22.127Z,99.99
2022-09-10T05:07:22.090Z,99.99
2022-09-10T05:08:22.110Z,99.99
2022-09-10T05:09:22.058Z,99.99
2022-09-10T05:10:22.169Z,99.99
2022-09-10T05:11:22.031Z,99.99
2022-09-10T05:12:22.024Z,99.99
2022-09-10T05:13:22.028Z,99.99
2022-09-10T05:14:22.027Z,99.99
2022-09-10T05:15:21.997Z,99.99
2022-09-10T05:16:22.038Z,99.99
2022-09-10T05:17:21.965Z,99.99
2022-09-10T05:18:21.964Z,99.99
2022-09-10T05:19:21.991Z,99.99
2022-09-10T05:20:21.932Z,99.99
2022-09-10T05:21:21.936Z,99.99
2022-09-10T05:22:21.927Z,99.99
2022-09-10T05:23:21.898Z,99.99
2022-09-10T05:24:21.916Z,99.99
2022-09-10T05:25:21.910Z,99.99
2022-09-10T05:26:21.900Z,99.99
2022-09-10T05:27:21.863Z,99.99
2022-09-10T05:28:21.844Z,99.99
2022-09-10T05:29:21.831Z,99.99
2022-09-10T05:30:21.835Z,99.99
2022-09-10T05:31:21.894Z,99.99
2022-09-10T05:32:21.808Z,99.99
2022-09-10T05:33:21.814Z,99.99
2022-09-10T05:34:21.778Z,99.99
2022-09-10T05:35:21.773Z,99.99
2022-09-10T05:36:21.765Z,99.99
2022-09-10T05:37:21.766Z,99.99
2022-09-10T05:38:21.749Z,99.99
2022-09-10T05:39:21.740Z,99.99
2022-09-10T05:40:21.729Z,99.99
2022-09-10T05:41:21.711Z,99.99
2022-09-10T05:42:21.719Z,99.99
2022-09-10T05:43:21.689Z,99.99
2022-09-10T05:44:21.697Z,99.99
2022-09-10T05:45:21.751Z,99.99
2022-09-10T05:46:21.645Z,99.99
2022-09-10T05:47:21.634Z,99.99
2022-09-10T05:48:21.652Z,99.99
2022-09-10T05:49:21.628Z,99.99
2022-09-10T05:50:21.626Z,99.99
2022-09-10T05:51:21.590Z,99.99
2022-09-10T05:52:21.579Z,99.99
2022-09-10T05:53:21.568Z,99.99
2022-09-10T05:54:21.579Z,99.99
2022-09-10T05:55:21.557Z,99.99
2022-09-10T05:56:21.668Z,99.99
2022-09-10T05:57:21.522Z,99.99
2022-09-10T05:58:21.513Z,99.99
2022-09-10T05:59:21.513Z,99.99
2022-09-10T06:00:21.527Z,99.99
2022-09-10T06:01:21.500Z,99.99
2022-09-10T06:02:24.134Z,99.99
2022-09-10T06:03:21.481Z,99.99
2022-09-10T06:04:21.467Z,99.99
2022-09-10T06:05:21.450Z,99.99
2022-09-10T06:06:21.431Z,99.99
2022-09-10T06:07:21.434Z,99.99
2022-09-10T06:08:21.408Z,99.99
2022-09-10T06:09:21.389Z,99.99
2022-09-10T06:10:21.392Z,99.99
2022-09-10T06:11:21.396Z,99.99
2022-09-10T06:12:21.384Z,99.99
2022-09-10T06:13:21.376Z,99.99
2022-09-10T06:14:21.336Z,99.99
2022-09-10T06:15:21.341Z,99.99
2022-09-10T06:16:21.390Z,99.99
2022-09-10T06:17:21.301Z,99.99
2022-09-10T06:18:21.310Z,99.99
2022-09-10T06:19:21.276Z,99.99
2022-09-10T06:20:21.267Z,99.99
2022-09-10T06:21:29.790Z,99.99
2022-09-10T06:22:21.264Z,99.99
2022-09-10T06:23:21.267Z,99.99
2022-09-10T06:24:21.234Z,99.99
2022-09-10T06:25:21.210Z,99.99
2022-09-10T06:26:21.208Z,99.99
2022-09-10T06:27:21.201Z,99.99
2022-09-10T06:28:21.243Z,99.99
2022-09-10T06:29:21.197Z,99.99
2022-09-10T06:30:21.158Z,99.99
2022-09-10T06:31:21.143Z,99.99
2022-09-10T06:32:21.148Z,99.99
2022-09-10T06:33:21.131Z,99.99
2022-09-10T06:34:21.142Z,99.99
2022-09-10T06:35:21.100Z,99.99
2022-09-10T06:36:21.090Z,99.99
2022-09-10T06:37:21.077Z,99.99
2022-09-10T06:38:21.084Z,99.99
2022-09-10T06:39:21.088Z,99.99
2022-09-10T06:40:21.070Z,99.99
2022-09-10T06:41:21.044Z,99.99
2022-09-10T06:42:21.023Z,99.99
2022-09-10T06:43:21.032Z,99.99
2022-09-10T06:44:21.020Z,99.99
2022-09-10T06:45:21.034Z,99.99
2022-09-10T06:48:39.171Z,99.99
2022-09-10T06:49:21.961Z,99.99
2022-09-10T06:50:20.958Z,99.99
2022-09-10T06:51:20.931Z,99.99
2022-09-10T06:52:20.945Z,99.99
2022-09-10T06:53:20.946Z,99.99
2022-09-10T06:54:20.890Z,99.99
2022-09-10T06:55:20.905Z,99.99
2022-09-10T06:56:20.875Z,99.99
2022-09-10T06:57:20.871Z,99.99
2022-09-10T06:58:20.855Z,99.99
2022-09-10T06:59:20.850Z,99.99
2022-09-10T07:00:20.858Z,99.99
2022-09-10T07:01:20.838Z,99.99
2022-09-10T07:02:20.866Z,99.99
2022-09-10T07:03:20.811Z,99.99
2022-09-10T07:04:20.780Z,99.99
2022-09-10T07:05:20.827Z,99.99
2022-09-10T07:06:20.763Z,99.99
2022-09-10T07:07:20.746Z,99.99
2022-09-10T07:08:20.741Z,99.99
2022-09-10T07:09:20.749Z,99.99
2022-09-10T07:10:20.727Z,99.99
2022-09-10T07:11:20.701Z,99.99
2022-09-10T07:12:20.702Z,99.99
2022-09-10T07:13:20.683Z,99.99
2022-09-10T07:14:20.679Z,99.99
2022-09-10T07:15:20.684Z,99.99
2022-09-10T07:16:20.658Z,99.99
2022-09-10T07:17:20.701Z,99.99
2022-09-10T07:18:20.622Z,99.99
2022-09-10T07:19:20.630Z,99.99
2022-09-10T07:20:20.619Z,99.99
2022-09-10T07:21:20.627Z,99.99
2022-09-10T07:22:20.575Z,99.99
2022-09-10T07:23:20.602Z,99.99
2022-09-10T07:24:20.558Z,99.99
2022-09-10T07:25:20.565Z,99.99
2022-09-10T07:26:20.555Z,99.99
2022-09-10T07:27:20.519Z,99.99
2022-09-10T07:28:20.527Z,99.99
2022-09-10T07:29:20.525Z,99.99
2022-09-10T07:30:20.494Z,99.99
2022-09-10T07:31:20.585Z,99.99
2022-09-10T07:32:20.494Z,99.99
2022-09-10T07:33:20.451Z,99.99
2022-09-10T07:34:20.446Z,99.99
2022-09-10T07:35:20.457Z,99.99
2022-09-10T07:36:20.434Z,99.99
2022-09-10T07:37:20.439Z,99.99
2022-09-10T07:38:20.401Z,99.99
2022-09-10T07:39:24.907Z,99.99
2022-09-10T07:40:21.434Z,99.99
2022-09-10T07:41:20.387Z,99.99
2022-09-10T07:42:20.361Z,99.99
2022-09-10T07:43:20.374Z,99.99
2022-09-10T07:44:20.328Z,99.99
2022-09-10T07:45:20.381Z,99.99
2022-09-10T07:46:20.430Z,99.99
2022-09-10T07:47:20.305Z,99.99
2022-09-10T07:48:20.320Z,99.99
2022-09-10T07:49:20.275Z,99.99
2022-09-10T07:50:20.280Z,99.99
2022-09-10T07:51:20.250Z,99.99
2022-09-10T07:52:20.243Z,99.99
2022-09-10T07:53:20.255Z,99.99
2022-09-10T07:54:20.239Z,99.99
2022-09-10T07:55:20.244Z,99.99
2022-09-10T07:56:20.190Z,99.99
2022-09-10T07:57:20.189Z,99.99
2022-09-10T07:58:20.178Z,99.99
2022-09-10T07:59:20.189Z,99.99
2022-09-10T08:00:20.235Z,99.99
2022-09-10T08:01:20.216Z,99.99
2022-09-10T08:02:20.170Z,99.99
2022-09-10T08:03:20.131Z,99.99
2022-09-10T08:04:20.129Z,99.99
2022-09-10T08:05:20.129Z,99.99
2022-09-10T08:06:20.082Z,99.99
2022-09-10T08:07:20.071Z,99.99
2022-09-10T08:08:20.057Z,99.99
2022-09-10T08:09:20.052Z,99.99
2022-09-10T08:10:20.099Z,99.99
2022-09-10T08:11:20.051Z,99.99
2022-09-10T08:12:20.022Z,99.99
2022-09-10T08:13:20.000Z,99.99
2022-09-10T08:14:19.997Z,99.99
2022-09-10T08:15:19.992Z,99.99
2022-09-10T08:16:19.989Z,99.99
2022-09-10T08:17:19.985Z,99.99
2022-09-10T08:18:19.943Z,99.99
2022-09-10T08:19:19.938Z,99.99
2022-09-10T08:20:19.956Z,99.99
2022-09-10T08:21:19.948Z,99.99
2022-09-10T08:22:19.915Z,99.99
2022-09-10T08:23:19.921Z,99.99
2022-09-10T08:24:19.891Z,99.99
2022-09-10T08:25:19.870Z,99.99
2022-09-10T08:26:19.865Z,99.99
2022-09-10T08:27:19.869Z,99.99
2022-09-10T08:28:24.818Z,99.99
2022-09-10T08:29:20.819Z,99.99
2022-09-10T08:30:19.805Z,99.99
2022-09-10T08:31:19.888Z,99.99
2022-09-10T08:32:19.793Z,99.99
2022-09-10T08:33:19.793Z,99.99
2022-09-10T08:34:19.795Z,99.99
2022-09-10T08:35:19.751Z,99.99
2022-09-10T08:36:19.756Z,99.99
2022-09-10T08:37:19.755Z,99.99
2022-09-10T08:38:19.742Z,99.99
2022-09-10T08:39:19.736Z,99.99
2022-09-10T08:40:19.695Z,99.99
2022-09-10T08:41:19.684Z,99.99
2022-09-10T08:42:19.681Z,99.99
2022-09-10T08:43:19.661Z,99.99
2022-09-10T08:44:19.679Z,99.99
2022-09-10T08:45:19.662Z,99.99
2022-09-10T08:46:19.626Z,99.99
2022-09-10T08:47:19.679Z,99.99
2022-09-10T08:48:19.619Z,99.99
2022-09-10T08:49:19.637Z,99.99
2022-09-10T08:50:19.615Z,99.99
2022-09-10T08:51:19.602Z,99.99
2022-09-10T08:52:19.585Z,99.99
2022-09-10T08:53:19.548Z,99.99
2022-09-10T08:54:19.556Z,99.99
2022-09-10T08:55:19.566Z,99.99
2022-09-10T08:56:19.549Z,99.99
2022-09-10T08:57:19.506Z,99.99
2022-09-10T08:58:19.492Z,99.99
2022-09-10T08:59:19.533Z,99.99
2022-09-10T09:00:19.478Z,99.99
2022-09-10T09:01:19.511Z,99.76
2022-09-10T09:02:44.661Z,99.99
2022-09-10T09:03:20.494Z,99.25
2022-09-10T09:04:19.441Z,99.99
2022-09-10T09:05:19.456Z,98.74
2022-09-10T09:06:19.416Z,97.53
2022-09-10T09:07:19.408Z,98.95
2022-09-10T09:08:19.411Z,98.65
2022-09-10T09:09:19.387Z,99.05
2022-09-10T09:10:19.363Z,98.03
2022-09-10T09:11:19.378Z,98.34
2022-09-10T09:12:19.348Z,97.73
2022-09-10T09:13:19.348Z,99.30
2022-09-10T09:14:19.360Z,99.40
2022-09-10T09:15:19.301Z,98.08
2022-09-10T09:16:19.303Z,97.43
2022-09-10T09:17:19.318Z,98.08
2022-09-10T09:18:19.295Z,96.66
2022-09-10T09:19:19.295Z,97.67
2022-09-10T09:20:19.244Z,97.98
2022-09-10T09:21:19.235Z,99.19
2022-09-10T09:22:19.253Z,97.88
2022-09-10T09:23:19.220Z,99.25
2022-09-10T09:24:19.242Z,99.10
2022-09-10T09:25:19.230Z,98.95
2022-09-10T09:26:19.181Z,99.61
2022-09-10T09:27:19.172Z,97.99
2022-09-10T09:28:19.191Z,98.19
2022-09-10T09:29:19.163Z,98.39
2022-09-10T09:30:19.168Z,98.85
2022-09-10T09:31:19.189Z,99.11
2022-09-10T09:32:19.109Z,98.00
2022-09-10T09:33:19.134Z,98.30
2022-09-10T09:34:19.088Z,98.30
2022-09-10T09:35:19.099Z,98.00
2022-09-10T09:36:19.091Z,95.98
2022-09-10T09:37:19.057Z,93.59
2022-09-10T09:38:19.049Z,94.46
2022-09-10T09:39:20.075Z,94.15
2022-09-10T09:40:19.080Z,94.71
2022-09-10T09:41:19.044Z,94.10
2022-09-10T09:42:19.032Z,93.90
2022-09-10T09:43:18.991Z,94.30
2022-09-10T09:44:18.980Z,94.40
2022-09-10T09:45:18.969Z,94.40
2022-09-10T09:46:19.004Z,96.22
2022-09-10T09:47:18.976Z,95.42
2022-09-10T09:48:18.976Z,97.44
2022-09-10T09:49:18.920Z,95.82
2022-09-10T09:50:18.988Z,95.51
2022-09-10T09:51:18.899Z,95.72
2022-09-10T09:52:18.905Z,95.62
2022-09-10T09:53:18.907Z,93.33
2022-09-10T09:54:56.714Z,94.75
2022-09-10T09:55:19.854Z,95.06
2022-09-10T09:56:18.877Z,95.26
2022-09-10T09:57:18.876Z,94.45
2022-09-10T09:58:18.847Z,95.15
2022-09-10T09:59:18.975Z,94.35
2022-09-10T10:00:18.810Z,94.90
2022-09-10T10:01:18.826Z,94.24
2022-09-10T10:02:18.801Z,95.97
2022-09-10T10:03:18.785Z,95.97
2022-09-10T10:04:18.790Z,95.15
2022-09-10T10:05:18.739Z,95.97
2022-09-10T10:06:18.750Z,96.88
2022-09-10T10:07:18.735Z,97.89
2022-09-10T10:08:18.711Z,97.58
2022-09-10T10:09:18.721Z,95.56
2022-09-10T10:10:18.724Z,95.76
2022-09-10T10:11:18.671Z,96.78
2022-09-10T10:12:18.701Z,97.38
2022-09-10T10:13:18.666Z,97.18
2022-09-10T10:14:18.662Z,97.99
2022-09-10T10:15:18.657Z,95.86
2022-09-10T10:16:18.613Z,94.45
2022-09-10T10:17:18.619Z,94.55
2022-09-10T10:18:18.596Z,95.36
2022-09-10T10:19:18.591Z,94.14
2022-09-10T10:20:18.589Z,93.94
2022-09-10T10:21:18.609Z,95.06
2022-09-10T10:22:19.323Z,95.15
2022-09-10T10:23:18.535Z,93.29
2022-09-10T10:24:18.539Z,94.30
2022-09-10T10:25:18.554Z,94.50
2022-09-10T10:26:18.514Z,92.28
2022-09-10T10:27:18.531Z,92.68
2022-09-10T10:28:18.510Z,92.08
2022-09-10T10:29:18.496Z,94.50
2022-09-10T10:30:18.481Z,94.10
2022-09-10T10:31:18.557Z,93.15
2022-09-10T10:32:18.455Z,93.24
2022-09-10T10:33:18.427Z,91.32
2022-09-10T10:34:18.432Z,90.41
2022-09-10T10:35:18.415Z,91.12
2022-09-10T10:36:18.398Z,89.30
2022-09-10T10:37:18.397Z,90.52
2022-09-10T10:38:18.394Z,91.42
2022-09-10T10:39:18.356Z,91.08
2022-09-10T10:40:18.375Z,91.08
2022-09-10T10:41:18.361Z,91.28
2022-09-10T10:42:18.332Z,88.15
2022-09-10T10:43:18.341Z,89.26
2022-09-10T10:44:18.363Z,89.66
2022-09-10T10:45:18.290Z,90.47
2022-09-10T10:46:18.399Z,91.14
2022-09-10T10:47:18.270Z,90.23
2022-09-10T10:48:18.270Z,90.39
2022-09-10T10:49:18.277Z,89.88
2022-09-10T10:50:18.235Z,89.88
2022-09-10T10:51:18.278Z,90.34
2022-09-10T10:52:18.225Z,88.79
2022-09-10T10:53:18.202Z,87.48
2022-09-10T10:54:18.207Z,84.21
2022-09-10T10:55:18.204Z,85.92
2022-09-10T10:56:18.165Z,84.61
2022-09-10T10:57:18.161Z,85.31
2022-09-10T10:58:18.151Z,86.49
2022-09-10T10:59:18.139Z,84.67
2022-09-10T11:00:18.166Z,84.37
2022-09-10T11:01:18.174Z,82.45
2022-09-10T11:02:18.176Z,82.96
2022-09-10T11:03:18.089Z,84.57
2022-09-10T11:04:18.105Z,82.70
2022-09-10T11:05:18.097Z,83.50
2022-09-10T11:06:18.087Z,84.31
2022-09-10T11:07:18.046Z,84.31
2022-09-10T11:08:18.033Z,85.05
2022-09-10T11:09:18.030Z,85.50
2022-09-10T11:10:18.042Z,85.80
2022-09-10T11:11:18.027Z,86.81
2022-09-10T11:12:18.026Z,87.66
2022-09-10T11:13:17.978Z,87.46
2022-09-10T11:14:17.986Z,88.92
2022-09-10T11:15:17.968Z,88.31
2022-09-10T11:16:18.004Z,89.66
2022-09-10T11:17:17.937Z,89.62
2022-09-10T11:18:17.957Z,90.12
2022-09-10T11:19:17.911Z,90.07
2022-09-10T11:20:28.343Z,89.83
2022-09-10T11:21:18.911Z,90.43
2022-09-10T11:22:17.894Z,89.52
2022-09-10T11:23:17.902Z,89.68
2022-09-10T11:24:17.942Z,87.70
2022-09-10T11:25:17.843Z,90.12
2022-09-10T11:26:17.839Z,93.05
2022-09-10T11:27:17.850Z,95.83
2022-09-10T11:28:17.830Z,96.69
2022-09-10T11:29:17.842Z,99.26
2022-09-10T11:30:17.789Z,99.99
2022-09-10T11:31:17.851Z,99.99
2022-09-10T11:32:17.801Z,99.99
2022-09-10T11:33:17.793Z,99.99
2022-09-10T11:34:17.770Z,99.99
2022-09-10T11:35:17.763Z,99.99
2022-09-10T11:36:17.720Z,99.99
2022-09-10T11:37:17.711Z,99.99
2022-09-10T11:38:17.700Z,99.99
2022-09-10T11:39:17.734Z,99.99
2022-09-10T11:40:17.709Z,99.99
2022-09-10T11:41:17.662Z,99.99
2022-09-10T11:42:17.669Z,99.99
2022-09-10T11:43:17.650Z,99.99
2022-09-10T11:44:17.641Z,99.99
2022-09-10T11:45:17.640Z,99.99
2022-09-10T11:46:17.685Z,99.99
2022-09-10T11:47:17.654Z,99.99
2022-09-10T11:48:17.611Z,98.99
2022-09-10T11:49:17.589Z,99.86
2022-09-10T11:50:17.577Z,99.40
2022-09-10T11:51:17.599Z,99.05
2022-09-10T11:52:17.585Z,98.28
2022-09-10T11:53:17.593Z,99.10
2022-09-10T11:54:17.523Z,99.40
2022-09-10T11:55:17.528Z,99.99
2022-09-10T11:56:17.516Z,99.99
2022-09-10T11:57:17.518Z,99.99
2022-09-10T11:58:17.514Z,99.99
2022-09-10T11:59:17.460Z,99.99
2022-09-10T12:00:17.488Z,99.99
2022-09-10T12:01:17.463Z,99.99
2022-09-10T12:02:17.487Z,99.99
2022-09-10T12:03:17.508Z,99.99
2022-09-10T12:04:17.422Z,99.99
2022-09-10T12:05:17.409Z,99.99
2022-09-10T12:06:17.394Z,99.99
2022-09-10T12:07:17.390Z,99.99
2022-09-10T12:08:17.409Z,99.99
2022-09-10T12:09:17.394Z,99.99
2022-09-10T12:10:17.401Z,99.99
2022-09-10T12:11:17.329Z,99.99
2022-09-10T12:12:17.358Z,99.99
2022-09-10T12:13:17.326Z,99.99
2022-09-10T12:14:17.867Z,99.99
2022-09-10T12:15:17.340Z,99.62
2022-09-10T12:16:17.297Z,99.99
2022-09-10T12:17:17.272Z,99.11
2022-09-10T12:18:17.253Z,98.61
2022-09-10T12:19:17.263Z,97.90
2022-09-10T12:20:17.256Z,99.72
2022-09-10T12:21:17.262Z,99.37
2022-09-10T12:22:17.209Z,98.36
2022-09-10T12:23:17.215Z,99.07
2022-09-10T12:24:17.238Z,99.02
2022-09-10T12:25:17.200Z,99.93
2022-09-10T12:26:17.166Z,99.07
2022-09-10T12:27:17.158Z,97.36
2022-09-10T12:28:17.149Z,95.48
2022-09-10T12:29:17.157Z,93.21
2022-09-10T12:30:17.440Z,94.67
2022-09-10T12:31:17.185Z,94.93
2022-09-10T12:32:17.093Z,95.54
2022-09-10T12:33:17.078Z,94.08
2022-09-10T12:34:17.087Z,94.74
2022-09-10T12:35:17.096Z,92.93
2022-09-10T12:36:17.089Z,93.79
2022-09-10T12:37:17.106Z,92.63
2022-09-10T12:38:17.026Z,91.93
2022-09-10T12:39:17.015Z,89.26
2022-09-10T12:40:17.073Z,88.46
2022-09-10T12:41:17.027Z,89.81
2022-09-10T12:42:17.011Z,89.41
2022-09-10T12:43:17.008Z,87.09
2022-09-10T12:44:16.967Z,87.74
2022-09-10T12:45:16.963Z,90.06
2022-09-10T12:46:17.005Z,88.48
2022-09-10T12:47:16.968Z,90.50
2022-09-10T12:48:16.938Z,91.21
2022-09-10T12:49:16.902Z,93.73
2022-09-10T12:50:16.912Z,90.34
2022-09-10T12:51:16.924Z,88.26
2022-09-10T12:52:16.902Z,89.88
2022-09-10T12:53:16.884Z,91.30
2022-09-10T12:54:16.877Z,89.88